sensor_id;sensor_type;location;lat;lon;timestamp;temperature;humidity
71096;DHT22;58753;49.440;11.126;2023-11-21T00:00:20;7.10;92.97
71096;DHT22;58753;49.440;11.126;2023-11-21T00:02:48;7.08;92.90
71096;DHT22;58753;49.440;11.126;2023-11-21T00:05:16;7.08;93.04
71096;DHT22;58753;49.440;11.126;2023-11-21T00:07:42;7.07;92.97
71096;DHT22;58753;49.440;11.126;2023-11-21T00:10:09;7.08;93.06
71096;DHT22;58753;49.440;11.126;2023-11-21T00:12:35;7.06;93.16
71096;DHT22;58753;49.440;11.126;2023-11-21T00:15:01;7.03;93.22
71096;DHT22;58753;49.440;11.126;2023-11-21T00:17:29;7.06;93.32
71096;DHT22;58753;49.440;11.126;2023-11-21T00:19:56;7.06;93.38
71096;DHT22;58753;49.440;11.126;2023-11-21T00:22:24;7.08;93.52
71096;DHT22;58753;49.440;11.126;2023-11-21T00:24:50;7.07;93.44
71096;DHT22;58753;49.440;11.126;2023-11-21T00:27:18;7.08;93.46
71096;DHT22;58753;49.440;11.126;2023-11-21T00:29:43;7.07;93.45
71096;DHT22;58753;49.440;11.126;2023-11-21T00:32:09;7.10;93.53
71096;DHT22;58753;49.440;11.126;2023-11-21T00:34:34;7.08;93.48
71096;DHT22;58753;49.440;11.126;2023-11-21T00:37:02;7.06;93.48
71096;DHT22;58753;49.440;11.126;2023-11-21T00:39:28;7.10;93.69
71096;DHT22;58753;49.440;11.126;2023-11-21T00:41:53;7.06;93.62
71096;DHT22;58753;49.440;11.126;2023-11-21T00:44:18;7.04;93.61
71096;DHT22;58753;49.440;11.126;2023-11-21T00:46:44;7.01;93.70
71096;DHT22;58753;49.440;11.126;2023-11-21T00:49:09;7.06;93.70
71096;DHT22;58753;49.440;11.126;2023-11-21T00:51:35;7.03;93.68
71096;DHT22;58753;49.440;11.126;2023-11-21T00:54:01;7.03;93.75
71096;DHT22;58753;49.440;11.126;2023-11-21T00:56:26;7.03;93.88
71096;DHT22;58753;49.440;11.126;2023-11-21T00:58:57;7.00;93.88
71096;DHT22;58753;49.440;11.126;2023-11-21T01:01:22;7.03;94.01
71096;DHT22;58753;49.440;11.126;2023-11-21T01:03:48;7.03;93.98
71096;DHT22;58753;49.440;11.126;2023-11-21T01:06:17;7.03;94.03
71096;DHT22;58753;49.440;11.126;2023-11-21T01:08:43;7.04;94.07
71096;DHT22;58753;49.440;11.126;2023-11-21T01:11:09;7.01;94.10
71096;DHT22;58753;49.440;11.126;2023-11-21T01:13:41;6.99;94.16
71096;DHT22;58753;49.440;11.126;2023-11-21T01:16:07;7.00;94.16
71096;DHT22;58753;49.440;11.126;2023-11-21T01:18:35;7.00;94.18
71096;DHT22;58753;49.440;11.126;2023-11-21T01:21:01;6.99;94.21
71096;DHT22;58753;49.440;11.126;2023-11-21T01:23:31;7.01;94.29
71096;DHT22;58753;49.440;11.126;2023-11-21T01:25:57;7.01;94.31
71096;DHT22;58753;49.440;11.126;2023-11-21T01:28:22;7.04;94.38
71096;DHT22;58753;49.440;11.126;2023-11-21T01:30:48;7.06;94.35
71096;DHT22;58753;49.440;11.126;2023-11-21T01:33:14;7.06;94.36
71096;DHT22;58753;49.440;11.126;2023-11-21T01:35:41;7.03;94.39
71096;DHT22;58753;49.440;11.126;2023-11-21T01:38:06;7.01;94.39
71096;DHT22;58753;49.440;11.126;2023-11-21T01:40:33;7.00;94.34
71096;DHT22;58753;49.440;11.126;2023-11-21T01:43:01;6.96;94.41
71096;DHT22;58753;49.440;11.126;2023-11-21T01:45:29;6.97;94.48
71096;DHT22;58753;49.440;11.126;2023-11-21T01:48:04;6.99;94.53
71096;DHT22;58753;49.440;11.126;2023-11-21T01:50:34;6.97;94.54
71096;DHT22;58753;49.440;11.126;2023-11-21T01:52:59;6.93;94.56
71096;DHT22;58753;49.440;11.126;2023-11-21T01:55:27;6.90;94.55
71096;DHT22;58753;49.440;11.126;2023-11-21T01:57:52;6.90;94.57
71096;DHT22;58753;49.440;11.126;2023-11-21T02:00:20;6.87;94.60
71096;DHT22;58753;49.440;11.126;2023-11-21T02:02:49;6.92;94.69
71096;DHT22;58753;49.440;11.126;2023-11-21T02:05:17;6.87;94.67
71096;DHT22;58753;49.440;11.126;2023-11-21T02:07:46;6.87;94.61
71096;DHT22;58753;49.440;11.126;2023-11-21T02:10:15;6.83;94.60
71096;DHT22;58753;49.440;11.126;2023-11-21T02:12:41;6.82;94.65
71096;DHT22;58753;49.440;11.126;2023-11-21T02:15:10;6.79;94.74
71096;DHT22;58753;49.440;11.126;2023-11-21T02:17:43;6.82;94.86
71096;DHT22;58753;49.440;11.126;2023-11-21T02:20:13;6.85;94.75
71096;DHT22;58753;49.440;11.126;2023-11-21T02:22:57;6.82;94.81
71096;DHT22;58753;49.440;11.126;2023-11-21T02:25:27;6.85;94.82
71096;DHT22;58753;49.440;11.126;2023-11-21T02:28:02;6.80;94.84
71096;DHT22;58753;49.440;11.126;2023-11-21T02:30:31;6.83;94.97
71096;DHT22;58753;49.440;11.126;2023-11-21T02:33:02;6.83;94.95
71096;DHT22;58753;49.440;11.126;2023-11-21T02:35:28;6.83;94.94
71096;DHT22;58753;49.440;11.126;2023-11-21T02:37:54;6.82;94.98
71096;DHT22;58753;49.440;11.126;2023-11-21T02:40:20;6.85;94.99
71096;DHT22;58753;49.440;11.126;2023-11-21T02:42:50;6.83;95.02
71096;DHT22;58753;49.440;11.126;2023-11-21T02:45:19;6.85;95.04
71096;DHT22;58753;49.440;11.126;2023-11-21T02:47:46;6.85;95.05
71096;DHT22;58753;49.440;11.126;2023-11-21T02:50:12;6.85;95.02
71096;DHT22;58753;49.440;11.126;2023-11-21T02:52:38;6.86;95.10
71096;DHT22;58753;49.440;11.126;2023-11-21T02:55:05;6.89;95.10
71096;DHT22;58753;49.440;11.126;2023-11-21T02:57:32;6.87;95.11
71096;DHT22;58753;49.440;11.126;2023-11-21T03:00:03;6.90;95.19
71096;DHT22;58753;49.440;11.126;2023-11-21T03:02:28;6.92;95.09
71096;DHT22;58753;49.440;11.126;2023-11-21T03:04:54;6.89;95.12
71096;DHT22;58753;49.440;11.126;2023-11-21T03:07:21;6.87;95.14
71096;DHT22;58753;49.440;11.126;2023-11-21T03:09:49;6.89;95.15
71096;DHT22;58753;49.440;11.126;2023-11-21T03:12:17;6.92;95.26
71096;DHT22;58753;49.440;11.126;2023-11-21T03:14:42;6.89;95.16
71096;DHT22;58753;49.440;11.126;2023-11-21T03:17:10;6.92;95.20
71096;DHT22;58753;49.440;11.126;2023-11-21T03:19:41;6.93;95.24
71096;DHT22;58753;49.440;11.126;2023-11-21T03:22:07;6.89;95.11
71096;DHT22;58753;49.440;11.126;2023-11-21T03:24:33;6.89;95.19
71096;DHT22;58753;49.440;11.126;2023-11-21T03:26:59;6.89;95.30
71096;DHT22;58753;49.440;11.126;2023-11-21T03:29:26;6.87;95.26
71096;DHT22;58753;49.440;11.126;2023-11-21T03:31:52;6.90;95.31
71096;DHT22;58753;49.440;11.126;2023-11-21T03:34:25;6.89;95.32
71096;DHT22;58753;49.440;11.126;2023-11-21T03:36:55;6.86;95.35
71096;DHT22;58753;49.440;11.126;2023-11-21T03:39:23;6.90;95.39
71096;DHT22;58753;49.440;11.126;2023-11-21T03:41:51;6.89;95.32
71096;DHT22;58753;49.440;11.126;2023-11-21T03:44:19;6.89;95.35
71096;DHT22;58753;49.440;11.126;2023-11-21T03:46:44;6.86;95.37
71096;DHT22;58753;49.440;11.126;2023-11-21T03:49:10;6.86;95.36
71096;DHT22;58753;49.440;11.126;2023-11-21T03:51:36;6.87;95.42
71096;DHT22;58753;49.440;11.126;2023-11-21T03:54:04;6.86;95.44
71096;DHT22;58753;49.440;11.126;2023-11-21T03:56:32;6.89;95.51
71096;DHT22;58753;49.440;11.126;2023-11-21T03:58:57;6.85;95.40
71096;DHT22;58753;49.440;11.126;2023-11-21T04:01:23;6.86;95.48
71096;DHT22;58753;49.440;11.126;2023-11-21T04:03:50;6.85;95.43
71096;DHT22;58753;49.440;11.126;2023-11-21T04:06:20;6.85;95.48
71096;DHT22;58753;49.440;11.126;2023-11-21T04:08:50;6.85;95.52
71096;DHT22;58753;49.440;11.126;2023-11-21T04:11:18;6.87;95.59
71096;DHT22;58753;49.440;11.126;2023-11-21T04:13:46;6.85;95.49
71096;DHT22;58753;49.440;11.126;2023-11-21T04:16:12;6.83;95.54
71096;DHT22;58753;49.440;11.126;2023-11-21T04:18:38;6.82;95.52
71096;DHT22;58753;49.440;11.126;2023-11-21T04:21:09;6.82;95.69
71096;DHT22;58753;49.440;11.126;2023-11-21T04:23:35;6.83;95.56
71096;DHT22;58753;49.440;11.126;2023-11-21T04:26:01;6.83;95.60
71096;DHT22;58753;49.440;11.126;2023-11-21T04:28:27;6.79;95.57
71096;DHT22;58753;49.440;11.126;2023-11-21T04:30:53;6.77;95.68
71096;DHT22;58753;49.440;11.126;2023-11-21T04:33:18;6.79;95.64
71096;DHT22;58753;49.440;11.126;2023-11-21T04:35:43;6.83;95.70
71096;DHT22;58753;49.440;11.126;2023-11-21T04:38:11;6.80;95.63
71096;DHT22;58753;49.440;11.126;2023-11-21T04:40:39;6.80;95.69
71096;DHT22;58753;49.440;11.126;2023-11-21T04:43:07;6.85;95.64
71096;DHT22;58753;49.440;11.126;2023-11-21T04:45:32;6.83;95.67
71096;DHT22;58753;49.440;11.126;2023-11-21T04:47:58;6.83;95.70
71096;DHT22;58753;49.440;11.126;2023-11-21T04:50:23;6.83;95.70
71096;DHT22;58753;49.440;11.126;2023-11-21T04:52:51;6.86;95.80
71096;DHT22;58753;49.440;11.126;2023-11-21T04:55:16;6.89;95.75
71096;DHT22;58753;49.440;11.126;2023-11-21T04:57:44;6.87;95.79
71096;DHT22;58753;49.440;11.126;2023-11-21T05:00:13;6.87;95.75
71096;DHT22;58753;49.440;11.126;2023-11-21T05:02:41;6.90;95.75
71096;DHT22;58753;49.440;11.126;2023-11-21T05:05:07;6.87;95.75
71096;DHT22;58753;49.440;11.126;2023-11-21T05:07:33;6.87;95.72
71096;DHT22;58753;49.440;11.126;2023-11-21T05:10:00;6.89;95.77
71096;DHT22;58753;49.440;11.126;2023-11-21T05:12:30;6.83;95.72
71096;DHT22;58753;49.440;11.126;2023-11-21T05:15:01;6.85;95.77
71096;DHT22;58753;49.440;11.126;2023-11-21T05:17:28;6.85;95.75
71096;DHT22;58753;49.440;11.126;2023-11-21T05:19:53;6.85;95.80
71096;DHT22;58753;49.440;11.126;2023-11-21T05:22:21;6.85;95.74
71096;DHT22;58753;49.440;11.126;2023-11-21T05:24:46;6.80;95.74
71096;DHT22;58753;49.440;11.126;2023-11-21T05:27:11;6.82;95.81
71096;DHT22;58753;49.440;11.126;2023-11-21T05:29:40;6.85;95.86
71096;DHT22;58753;49.440;11.126;2023-11-21T05:32:05;6.83;95.88
71096;DHT22;58753;49.440;11.126;2023-11-21T05:34:31;6.82;95.87
71096;DHT22;58753;49.440;11.126;2023-11-21T05:36:56;6.83;95.99
71096;DHT22;58753;49.440;11.126;2023-11-21T05:39:26;6.85;95.95
71096;DHT22;58753;49.440;11.126;2023-11-21T05:41:53;6.82;95.84
71096;DHT22;58753;49.440;11.126;2023-11-21T05:44:19;6.86;95.96
71096;DHT22;58753;49.440;11.126;2023-11-21T05:46:46;6.85;95.88
71096;DHT22;58753;49.440;11.126;2023-11-21T05:49:12;6.83;95.92
71096;DHT22;58753;49.440;11.126;2023-11-21T05:51:37;6.82;95.90
71096;DHT22;58753;49.440;11.126;2023-11-21T05:54:03;6.82;95.94
71096;DHT22;58753;49.440;11.126;2023-11-21T05:56:29;6.80;95.94
71096;DHT22;58753;49.440;11.126;2023-11-21T05:58:57;6.86;95.97
71096;DHT22;58753;49.440;11.126;2023-11-21T06:01:22;6.83;96.00
71096;DHT22;58753;49.440;11.126;2023-11-21T06:03:48;6.82;95.99
71096;DHT22;58753;49.440;11.126;2023-11-21T06:06:13;6.79;95.99
71096;DHT22;58753;49.440;11.126;2023-11-21T06:08:38;6.83;95.99
71096;DHT22;58753;49.440;11.126;2023-11-21T06:11:06;6.85;95.99
71096;DHT22;58753;49.440;11.126;2023-11-21T06:13:32;6.85;96.05
71096;DHT22;58753;49.440;11.126;2023-11-21T06:15:57;6.86;96.10
71096;DHT22;58753;49.440;11.126;2023-11-21T06:18:23;6.87;96.03
71096;DHT22;58753;49.440;11.126;2023-11-21T06:20:49;6.86;96.02
71096;DHT22;58753;49.440;11.126;2023-11-21T06:23:15;6.85;96.04
71096;DHT22;58753;49.440;11.126;2023-11-21T06:25:41;6.87;96.07
71096;DHT22;58753;49.440;11.126;2023-11-21T06:28:07;6.85;95.99
71096;DHT22;58753;49.440;11.126;2023-11-21T06:30:32;6.83;95.99
71096;DHT22;58753;49.440;11.126;2023-11-21T06:33:00;6.83;96.07
71096;DHT22;58753;49.440;11.126;2023-11-21T06:35:27;6.87;96.15
71096;DHT22;58753;49.440;11.126;2023-11-21T06:37:57;6.89;96.16
71096;DHT22;58753;49.440;11.126;2023-11-21T06:40:25;6.92;96.18
71096;DHT22;58753;49.440;11.126;2023-11-21T06:42:51;6.92;96.22
71096;DHT22;58753;49.440;11.126;2023-11-21T06:45:16;6.93;96.21
71096;DHT22;58753;49.440;11.126;2023-11-21T06:47:42;6.96;96.22
71096;DHT22;58753;49.440;11.126;2023-11-21T06:50:08;6.96;96.22
71096;DHT22;58753;49.440;11.126;2023-11-21T06:52:33;6.97;96.20
71096;DHT22;58753;49.440;11.126;2023-11-21T06:54:59;6.97;96.18
71096;DHT22;58753;49.440;11.126;2023-11-21T06:57:26;6.99;96.16
71096;DHT22;58753;49.440;11.126;2023-11-21T06:59:54;6.97;96.15
71096;DHT22;58753;49.440;11.126;2023-11-21T07:02:22;6.99;96.22
71096;DHT22;58753;49.440;11.126;2023-11-21T07:04:52;7.03;96.29
71096;DHT22;58753;49.440;11.126;2023-11-21T07:07:18;7.01;96.19
71096;DHT22;58753;49.440;11.126;2023-11-21T07:09:44;6.99;96.18
71096;DHT22;58753;49.440;11.126;2023-11-21T07:12:12;7.00;96.12
71096;DHT22;58753;49.440;11.126;2023-11-21T07:14:37;7.03;96.23
71096;DHT22;58753;49.440;11.126;2023-11-21T07:17:07;7.07;96.27
71096;DHT22;58753;49.440;11.126;2023-11-21T07:19:32;7.07;96.22
71096;DHT22;58753;49.440;11.126;2023-11-21T07:21:58;7.07;96.19
71096;DHT22;58753;49.440;11.126;2023-11-21T07:24:23;7.10;96.22
71096;DHT22;58753;49.440;11.126;2023-11-21T07:26:48;7.10;96.18
71096;DHT22;58753;49.440;11.126;2023-11-21T07:29:16;7.11;96.24
71096;DHT22;58753;49.440;11.126;2023-11-21T07:31:41;7.16;96.31
71096;DHT22;58753;49.440;11.126;2023-11-21T07:34:07;7.20;96.33
71096;DHT22;58753;49.440;11.126;2023-11-21T07:36:33;7.23;96.24
71096;DHT22;58753;49.440;11.126;2023-11-21T07:38:59;7.23;96.17
71096;DHT22;58753;49.440;11.126;2023-11-21T07:41:24;7.18;96.16
71096;DHT22;58753;49.440;11.126;2023-11-21T07:43:50;7.26;96.27
71096;DHT22;58753;49.440;11.126;2023-11-21T07:46:17;7.26;96.31
71096;DHT22;58753;49.440;11.126;2023-11-21T07:48:45;7.30;96.26
71096;DHT22;58753;49.440;11.126;2023-11-21T07:51:13;7.31;96.18
71096;DHT22;58753;49.440;11.126;2023-11-21T07:53:44;7.34;96.24
71096;DHT22;58753;49.440;11.126;2023-11-21T07:56:09;7.34;96.13
71096;DHT22;58753;49.440;11.126;2023-11-21T07:58:36;7.35;96.28
71096;DHT22;58753;49.440;11.126;2023-11-21T08:01:02;7.41;96.28
71096;DHT22;58753;49.440;11.126;2023-11-21T08:03:28;7.43;96.16
71096;DHT22;58753;49.440;11.126;2023-11-21T08:06:00;7.51;96.36
71096;DHT22;58753;49.440;11.126;2023-11-21T08:08:28;7.57;96.23
71096;DHT22;58753;49.440;11.126;2023-11-21T08:10:54;7.61;96.09
71096;DHT22;58753;49.440;11.126;2023-11-21T08:13:28;7.67;96.28
71096;DHT22;58753;49.440;11.126;2023-11-21T08:15:54;7.70;96.06
71096;DHT22;58753;49.440;11.126;2023-11-21T08:18:21;7.67;95.94
71096;DHT22;58753;49.440;11.126;2023-11-21T08:20:49;7.68;95.96
71096;DHT22;58753;49.440;11.126;2023-11-21T08:23:15;7.70;95.88
71096;DHT22;58753;49.440;11.126;2023-11-21T08:25:43;7.71;96.02
71096;DHT22;58753;49.440;11.126;2023-11-21T08:28:09;7.71;95.83
71096;DHT22;58753;49.440;11.126;2023-11-21T08:30:35;7.72;95.99
71096;DHT22;58753;49.440;11.126;2023-11-21T08:33:03;7.78;95.91
71096;DHT22;58753;49.440;11.126;2023-11-21T08:35:29;7.74;95.69
71096;DHT22;58753;49.440;11.126;2023-11-21T08:37:55;7.70;95.50
71096;DHT22;58753;49.440;11.126;2023-11-21T08:40:20;7.71;95.79
71096;DHT22;58753;49.440;11.126;2023-11-21T08:42:46;7.74;95.70
71096;DHT22;58753;49.440;11.126;2023-11-21T08:45:12;7.74;95.68
71096;DHT22;58753;49.440;11.126;2023-11-21T08:47:38;7.77;95.81
71096;DHT22;58753;49.440;11.126;2023-11-21T08:50:06;7.79;95.76
71096;DHT22;58753;49.440;11.126;2023-11-21T08:52:34;7.83;95.68
71096;DHT22;58753;49.440;11.126;2023-11-21T08:54:59;7.88;95.74
71096;DHT22;58753;49.440;11.126;2023-11-21T08:57:28;7.92;95.76
71096;DHT22;58753;49.440;11.126;2023-11-21T08:59:56;7.95;95.66
71096;DHT22;58753;49.440;11.126;2023-11-21T09:02:22;7.95;95.49
71096;DHT22;58753;49.440;11.126;2023-11-21T09:04:50;7.95;95.52
71096;DHT22;58753;49.440;11.126;2023-11-21T09:07:17;7.91;95.20
71096;DHT22;58753;49.440;11.126;2023-11-21T09:09:44;7.89;95.41
71096;DHT22;58753;49.440;11.126;2023-11-21T09:12:11;7.93;95.43
71096;DHT22;58753;49.440;11.126;2023-11-21T09:14:37;7.99;95.55
71096;DHT22;58753;49.440;11.126;2023-11-21T09:17:06;8.03;95.54
71096;DHT22;58753;49.440;11.126;2023-11-21T09:19:39;8.12;95.51
71096;DHT22;58753;49.440;11.126;2023-11-21T09:22:06;8.05;95.06
71096;DHT22;58753;49.440;11.126;2023-11-21T09:24:35;8.03;95.19
71096;DHT22;58753;49.440;11.126;2023-11-21T09:27:00;8.05;95.28
71096;DHT22;58753;49.440;11.126;2023-11-21T09:29:26;8.07;95.29
71096;DHT22;58753;49.440;11.126;2023-11-21T09:31:52;8.12;95.42
71096;DHT22;58753;49.440;11.126;2023-11-21T09:34:17;8.13;95.09
71096;DHT22;58753;49.440;11.126;2023-11-21T09:36:45;8.19;95.36
71096;DHT22;58753;49.440;11.126;2023-11-21T09:39:11;8.25;95.38
71096;DHT22;58753;49.440;11.126;2023-11-21T09:41:51;8.36;95.48
71096;DHT22;58753;49.440;11.126;2023-11-21T09:44:35;8.42;95.32
71096;DHT22;58753;49.440;11.126;2023-11-21T09:47:03;8.42;95.11
71096;DHT22;58753;49.440;11.126;2023-11-21T09:49:30;8.50;95.25
71096;DHT22;58753;49.440;11.126;2023-11-21T09:52:01;8.47;95.10
71096;DHT22;58753;49.440;11.126;2023-11-21T09:54:29;8.50;95.05
71096;DHT22;58753;49.440;11.126;2023-11-21T09:56:57;8.52;95.17
71096;DHT22;58753;49.440;11.126;2023-11-21T09:59:23;8.54;94.86
71096;DHT22;58753;49.440;11.126;2023-11-21T10:01:49;8.61;95.12
71096;DHT22;58753;49.440;11.126;2023-11-21T10:04:15;8.77;95.31
71096;DHT22;58753;49.440;11.126;2023-11-21T10:06:44;8.89;95.14
71096;DHT22;58753;49.440;11.126;2023-11-21T10:09:17;9.01;94.96
71096;DHT22;58753;49.440;11.126;2023-11-21T10:11:48;9.14;94.92
71096;DHT22;58753;49.440;11.126;2023-11-21T10:14:20;9.15;94.72
71096;DHT22;58753;49.440;11.126;2023-11-21T10:16:50;9.15;94.47
71096;DHT22;58753;49.440;11.126;2023-11-21T10:19:15;9.12;94.43
71096;DHT22;58753;49.440;11.126;2023-11-21T10:21:45;9.05;94.20
71096;DHT22;58753;49.440;11.126;2023-11-21T10:24:11;9.03;94.03
71096;DHT22;58753;49.440;11.126;2023-11-21T10:26:38;8.97;94.04
71096;DHT22;58753;49.440;11.126;2023-11-21T10:29:03;8.94;94.04
71096;DHT22;58753;49.440;11.126;2023-11-21T10:31:32;8.97;94.12
71096;DHT22;58753;49.440;11.126;2023-11-21T10:34:31;9.00;94.23
71096;DHT22;58753;49.440;11.126;2023-11-21T10:36:59;9.00;94.01
71096;DHT22;58753;49.440;11.126;2023-11-21T10:39:38;9.04;94.08
71096;DHT22;58753;49.440;11.126;2023-11-21T10:42:09;9.14;94.19
71096;DHT22;58753;49.440;11.126;2023-11-21T10:44:35;9.28;94.25
71096;DHT22;58753;49.440;11.126;2023-11-21T10:47:00;9.32;93.44
71096;DHT22;58753;49.440;11.126;2023-11-21T10:49:27;9.39;93.21
71096;DHT22;58753;49.440;11.126;2023-11-21T10:51:56;9.55;93.45
71096;DHT22;58753;49.440;11.126;2023-11-21T10:54:24;9.65;93.51
71096;DHT22;58753;49.440;11.126;2023-11-21T10:56:56;9.65;92.92
71096;DHT22;58753;49.440;11.126;2023-11-21T10:59:22;9.55;92.13
71096;DHT22;58753;49.440;11.126;2023-11-21T11:01:50;9.56;92.95
71096;DHT22;58753;49.440;11.126;2023-11-21T11:04:21;9.56;92.80
71096;DHT22;58753;49.440;11.126;2023-11-21T11:07:07;9.46;92.45
71096;DHT22;58753;49.440;11.126;2023-11-21T11:09:34;9.31;92.12
71096;DHT22;58753;49.440;11.126;2023-11-21T11:12:02;9.24;92.39
71096;DHT22;58753;49.440;11.126;2023-11-21T11:14:28;9.27;92.73
71096;DHT22;58753;49.440;11.126;2023-11-21T11:16:54;9.31;92.69
71096;DHT22;58753;49.440;11.126;2023-11-21T11:19:21;9.34;92.68
71096;DHT22;58753;49.440;11.126;2023-11-21T11:27:34;9.46;92.30
71096;DHT22;58753;49.440;11.126;2023-11-21T11:33:07;9.50;91.77
71096;DHT22;58753;49.440;11.126;2023-11-21T11:35:46;9.40;91.58
71096;DHT22;58753;49.440;11.126;2023-11-21T11:38:14;9.45;91.93
71096;DHT22;58753;49.440;11.126;2023-11-21T11:40:46;9.39;91.72
71096;DHT22;58753;49.440;11.126;2023-11-21T11:43:12;9.29;91.38
71096;DHT22;58753;49.440;11.126;2023-11-21T11:45:38;9.31;91.60
71096;DHT22;58753;49.440;11.126;2023-11-21T11:48:11;9.24;91.43
71096;DHT22;58753;49.440;11.126;2023-11-21T11:50:42;9.14;91.07
71096;DHT22;58753;49.440;11.126;2023-11-21T11:53:25;9.11;91.17
71096;DHT22;58753;49.440;11.126;2023-11-21T11:56:26;9.07;91.09
71096;DHT22;58753;49.440;11.126;2023-11-21T11:59:00;9.10;91.19
71096;DHT22;58753;49.440;11.126;2023-11-21T12:01:28;9.10;91.10
71096;DHT22;58753;49.440;11.126;2023-11-21T12:06:42;9.15;91.11
71096;DHT22;58753;49.440;11.126;2023-11-21T12:09:22;9.15;91.04
71096;DHT22;58753;49.440;11.126;2023-11-21T12:11:49;9.07;90.68
71096;DHT22;58753;49.440;11.126;2023-11-21T12:14:15;9.07;90.79
71096;DHT22;58753;49.440;11.126;2023-11-21T12:16:42;9.01;90.45
71096;DHT22;58753;49.440;11.126;2023-11-21T12:19:10;9.01;90.60
71096;DHT22;58753;49.440;11.126;2023-11-21T12:21:36;9.07;90.77
71096;DHT22;58753;49.440;11.126;2023-11-21T12:24:02;9.12;90.80
71096;DHT22;58753;49.440;11.126;2023-11-21T12:26:33;9.19;90.65
71096;DHT22;58753;49.440;11.126;2023-11-21T12:29:02;9.24;90.26
71096;DHT22;58753;49.440;11.126;2023-11-21T12:31:32;9.28;90.42
71096;DHT22;58753;49.440;11.126;2023-11-21T12:33:57;9.32;90.22
71096;DHT22;58753;49.440;11.126;2023-11-21T12:36:24;9.29;89.99
71096;DHT22;58753;49.440;11.126;2023-11-21T12:38:50;9.25;90.00
71096;DHT22;58753;49.440;11.126;2023-11-21T12:41:18;9.36;90.13
71096;DHT22;58753;49.440;11.126;2023-11-21T12:43:44;9.42;90.17
71096;DHT22;58753;49.440;11.126;2023-11-21T12:46:13;9.49;90.05
71096;DHT22;58753;49.440;11.126;2023-11-21T12:48:41;9.49;89.89
71096;DHT22;58753;49.440;11.126;2023-11-21T12:51:11;9.48;89.73
71096;DHT22;58753;49.440;11.126;2023-11-21T12:53:41;9.52;89.74
71096;DHT22;58753;49.440;11.126;2023-11-21T12:56:15;9.59;89.93
71096;DHT22;58753;49.440;11.126;2023-11-21T12:58:44;9.59;89.57
71096;DHT22;58753;49.440;11.126;2023-11-21T13:01:13;9.59;89.65
71096;DHT22;58753;49.440;11.126;2023-11-21T13:03:43;9.58;89.29
71096;DHT22;58753;49.440;11.126;2023-11-21T13:06:10;9.50;89.12
71096;DHT22;58753;49.440;11.126;2023-11-21T13:08:39;9.40;89.17
71096;DHT22;58753;49.440;11.126;2023-11-21T13:11:05;9.35;89.16
71096;DHT22;58753;49.440;11.126;2023-11-21T13:13:33;9.27;88.89
71096;DHT22;58753;49.440;11.126;2023-11-21T13:16:00;9.24;89.05
71096;DHT22;58753;49.440;11.126;2023-11-21T13:18:27;9.27;89.28
71096;DHT22;58753;49.440;11.126;2023-11-21T13:20:56;9.27;89.01
71096;DHT22;58753;49.440;11.126;2023-11-21T13:23:26;9.31;89.01
71096;DHT22;58753;49.440;11.126;2023-11-21T13:25:55;9.38;89.35
71096;DHT22;58753;49.440;11.126;2023-11-21T13:28:22;9.46;89.30
71096;DHT22;58753;49.440;11.126;2023-11-21T13:30:51;9.50;89.07
71096;DHT22;58753;49.440;11.126;2023-11-21T13:33:20;9.46;88.52
71096;DHT22;58753;49.440;11.126;2023-11-21T13:35:52;9.45;88.52
71096;DHT22;58753;49.440;11.126;2023-11-21T13:38:18;9.42;88.52
71096;DHT22;58753;49.440;11.126;2023-11-21T13:40:50;9.39;88.42
71096;DHT22;58753;49.440;11.126;2023-11-21T13:43:19;9.46;88.70
71096;DHT22;58753;49.440;11.126;2023-11-21T13:45:46;9.43;88.21
71096;DHT22;58753;49.440;11.126;2023-11-21T13:48:15;9.40;88.30
71096;DHT22;58753;49.440;11.126;2023-11-21T13:50:44;9.40;88.37
71096;DHT22;58753;49.440;11.126;2023-11-21T13:53:15;9.46;88.34
71096;DHT22;58753;49.440;11.126;2023-11-21T13:55:48;9.48;88.14
71096;DHT22;58753;49.440;11.126;2023-11-21T13:58:15;9.50;87.79
71096;DHT22;58753;49.440;11.126;2023-11-21T14:00:47;9.62;88.09
71096;DHT22;58753;49.440;11.126;2023-11-21T14:03:22;9.66;87.98
71096;DHT22;58753;49.440;11.126;2023-11-21T14:05:48;9.68;88.08
71096;DHT22;58753;49.440;11.126;2023-11-21T14:08:22;9.66;87.77
71096;DHT22;58753;49.440;11.126;2023-11-21T14:10:56;9.66;87.65
71096;DHT22;58753;49.440;11.126;2023-11-21T14:13:23;9.65;87.49
71096;DHT22;58753;49.440;11.126;2023-11-21T14:15:50;9.59;87.20
71096;DHT22;58753;49.440;11.126;2023-11-21T14:18:26;9.62;87.49
71096;DHT22;58753;49.440;11.126;2023-11-21T14:21:06;9.58;86.94
71096;DHT22;58753;49.440;11.126;2023-11-21T14:23:33;9.60;87.28
71096;DHT22;58753;49.440;11.126;2023-11-21T14:26:03;9.63;87.40
71096;DHT22;58753;49.440;11.126;2023-11-21T14:28:32;9.58;87.28
71096;DHT22;58753;49.440;11.126;2023-11-21T14:31:02;9.53;87.33
71096;DHT22;58753;49.440;11.126;2023-11-21T14:33:30;9.48;87.16
71096;DHT22;58753;49.440;11.126;2023-11-21T14:35:56;9.42;87.32
71096;DHT22;58753;49.440;11.126;2023-11-21T14:38:22;9.39;87.21
71096;DHT22;58753;49.440;11.126;2023-11-21T14:40:59;9.36;87.45
71096;DHT22;58753;49.440;11.126;2023-11-21T14:43:29;9.32;87.44
71096;DHT22;58753;49.440;11.126;2023-11-21T14:45:59;9.24;87.15
71096;DHT22;58753;49.440;11.126;2023-11-21T14:48:25;9.18;87.31
71096;DHT22;58753;49.440;11.126;2023-11-21T14:51:08;9.15;87.33
71096;DHT22;58753;49.440;11.126;2023-11-21T14:53:55;9.08;87.35
71096;DHT22;58753;49.440;11.126;2023-11-21T14:56:24;9.03;87.33
71096;DHT22;58753;49.440;11.126;2023-11-21T14:58:56;8.94;87.34
71096;DHT22;58753;49.440;11.126;2023-11-21T15:01:23;8.89;87.52
71096;DHT22;58753;49.440;11.126;2023-11-21T15:04:10;8.84;87.61
71096;DHT22;58753;49.440;11.126;2023-11-21T15:06:51;8.80;87.66
71096;DHT22;58753;49.440;11.126;2023-11-21T15:09:18;8.76;87.78
71096;DHT22;58753;49.440;11.126;2023-11-21T15:11:44;8.67;87.81
71096;DHT22;58753;49.440;11.126;2023-11-21T15:14:09;8.61;87.89
71096;DHT22;58753;49.440;11.126;2023-11-21T15:16:41;8.56;87.98
71096;DHT22;58753;49.440;11.126;2023-11-21T15:19:11;8.47;88.01
71096;DHT22;58753;49.440;11.126;2023-11-21T15:21:37;8.43;88.09
71096;DHT22;58753;49.440;11.126;2023-11-21T15:24:05;8.39;88.10
71096;DHT22;58753;49.440;11.126;2023-11-21T15:26:31;8.34;88.26
71096;DHT22;58753;49.440;11.126;2023-11-21T15:28:57;8.32;88.38
71096;DHT22;58753;49.440;11.126;2023-11-21T15:31:25;8.29;88.41
71096;DHT22;58753;49.440;11.126;2023-11-21T15:33:53;8.25;88.50
71096;DHT22;58753;49.440;11.126;2023-11-21T15:36:19;8.22;88.55
71096;DHT22;58753;49.440;11.126;2023-11-21T15:38:45;8.19;88.69
71096;DHT22;58753;49.440;11.126;2023-11-21T15:41:11;8.14;88.77
71096;DHT22;58753;49.440;11.126;2023-11-21T15:43:39;8.06;88.92
71096;DHT22;58753;49.440;11.126;2023-11-21T15:46:07;8.02;89.09